Time;durP1;ratioP1;P1;durP2;ratioP2;P2;SDS_P1;SDS_P2;PMS_P1;PMS_P2;Temp;Humidity;BMP_temperature;BMP_pressure;BME280_temperature;BME280_humidity;BME280_pressure;Samples;Min_cycle;Max_cycle;Signal;HPM_P1;HPM_P2
2022/05/10 00:01:45;;;;;;;9.77;8.75;;;9.10;99.90;;;;;;6155403;23;20024;-82
2022/05/10 00:04:13;;;;;;;10.13;8.63;;;9.20;99.90;;;;;;6131419;23;20025;-82
2022/05/10 00:06:47;;;;;;;10.35;8.07;;;9.20;99.90;;;;;;6165647;23;20024;-82
2022/05/10 00:09:20;;;;;;;9.27;8.20;;;9.30;99.90;;;;;;6154918;23;20036;-82
2022/05/10 00:11:49;;;;;;;10.57;9.48;;;9.40;99.90;;;;;;6131211;23;20014;-82
2022/05/10 00:14:16;;;;;;;9.35;8.52;;;9.40;99.90;;;;;;6142116;23;20020;-82
2022/05/10 00:17:08;;;;;;;9.10;7.75;;;9.40;99.90;;;;;;6161120;23;20021;-82
2022/05/10 00:20:47;;;;;;;13.65;10.65;;;9.40;99.90;;;;;;6137388;23;20024;-82
2022/05/10 00:24:13;;;;;;;9.85;8.65;;;9.40;99.90;;;;;;6132977;23;20050;-82
2022/05/10 00:27:46;;;;;;;9.27;8.32;;;9.30;99.90;;;;;;6136884;23;20233;-82
2022/05/10 00:31:17;;;;;;;9.35;8.43;;;9.20;99.90;;;;;;6136035;23;20036;-82
2022/05/10 00:34:01;;;;;;;15.13;10.48;;;9.30;99.90;;;;;;6130961;23;20028;-82
2022/05/10 00:36:29;;;;;;;14.32;9.32;;;9.40;99.90;;;;;;6129628;23;20021;-82
2022/05/10 00:38:57;;;;;;;9.48;7.68;;;9.30;99.90;;;;;;6150341;23;20029;-82
2022/05/10 00:41:46;;;;;;;10.68;9.57;;;9.30;99.90;;;;;;6152536;23;20461;-82
2022/05/10 00:44:34;;;;;;;9.18;8.27;;;9.30;99.90;;;;;;6159972;23;20036;-82
2022/05/10 00:47:26;;;;;;;10.27;9.27;;;9.30;99.90;;;;;;6162066;23;20017;-82
2022/05/10 00:50:00;;;;;;;9.00;8.13;;;9.40;99.90;;;;;;6152527;23;20368;-81
2022/05/10 00:52:59;;;;;;;12.00;9.13;;;9.40;99.90;;;;;;6149937;23;20559;-81
2022/05/10 00:55:59;;;;;;;8.25;7.45;;;9.40;99.90;;;;;;6150808;23;20044;-82
2022/05/10 00:58:57;;;;;;;9.93;8.93;;;9.40;99.90;;;;;;6158818;23;20026;-81
2022/05/10 01:01:32;;;;;;;7.93;6.93;;;9.40;99.90;;;;;;6152838;23;20018;-82
2022/05/10 01:04:08;;;;;;;8.80;7.22;;;9.30;99.90;;;;;;6159135;23;20330;-81
2022/05/10 01:06:59;;;;;;;8.20;7.28;;;9.30;99.90;;;;;;6161765;23;20010;-82
2022/05/10 01:09:44;;;;;;;6.10;5.60;;;9.30;99.90;;;;;;6154035;23;20029;-82
2022/05/10 01:12:23;;;;;;;23.27;9.90;;;9.20;99.90;;;;;;6149977;23;20022;-82
2022/05/10 01:14:58;;;;;;;7.65;6.60;;;8.80;99.90;;;;;;6162212;23;20032;-82
2022/05/10 01:17:25;;;;;;;6.82;6.22;;;8.60;99.90;;;;;;6152693;23;20028;-82
2022/05/10 01:19:53;;;;;;;8.82;7.63;;;8.60;99.90;;;;;;6160198;23;20014;-83
2022/05/10 01:22:47;;;;;;;8.45;7.55;;;8.60;99.90;;;;;;6161253;23;20013;-82
2022/05/10 01:25:23;;;;;;;9.35;8.35;;;8.60;99.90;;;;;;6150639;23;20445;-82
2022/05/10 01:28:07;;;;;;;11.43;8.38;;;8.60;99.90;;;;;;6159417;23;20018;-82
2022/05/10 01:30:35;;;;;;;8.63;7.80;;;8.70;99.90;;;;;;6160798;23;20018;-83
2022/05/10 01:36:46;;;;;;;11.65;9.13;;;8.90;99.90;;;;;;6160910;23;20024;-82
2022/05/10 01:39:23;;;;;;;8.57;7.55;;;8.90;99.90;;;;;;6119451;23;20036;-83
2022/05/10 01:42:00;;;;;;;7.32;5.63;;;8.80;99.90;;;;;;6148665;23;20026;-82
2022/05/10 01:44:43;;;;;;;6.32;5.75;;;8.60;99.90;;;;;;6150222;23;20021;-82
2022/05/10 01:47:20;;;;;;;7.95;5.97;;;8.20;99.90;;;;;;6160321;23;20010;-82
2022/05/10 01:49:56;;;;;;;8.25;6.95;;;8.00;99.90;;;;;;6150685;23;20025;-82
2022/05/10 01:53:13;;;;;;;8.13;6.13;;;8.10;99.90;;;;;;6159069;23;20056;-82
2022/05/10 01:56:36;;;;;;;10.95;7.85;;;8.20;99.90;;;;;;6161431;23;20361;-82
2022/05/10 01:59:53;;;;;;;7.90;6.40;;;8.40;99.90;;;;;;6162714;23;20010;-82
2022/05/10 02:03:19;;;;;;;7.45;6.05;;;8.30;99.90;;;;;;6178580;23;20032;-82
2022/05/10 02:06:48;;;;;;;8.43;7.35;;;8.10;99.90;;;;;;6160006;23;20036;-83
2022/05/10 02:10:18;;;;;;;8.15;7.00;;;8.10;99.90;;;;;;6151786;23;20017;-83
2022/05/10 02:13:45;;;;;;;7.88;6.50;;;8.30;99.90;;;;;;6156477;23;20026;-83
2022/05/10 02:17:14;;;;;;;7.47;5.72;;;8.40;99.90;;;;;;6133573;23;20022;-83
2022/05/10 02:20:28;;;;;;;7.43;6.47;;;8.50;99.90;;;;;;6159264;23;20029;-83
2022/05/10 02:23:20;;;;;;;8.35;7.40;;;8.60;99.90;;;;;;6161544;23;20091;-82
2022/05/10 02:25:56;;;;;;;11.30;7.90;;;8.50;99.90;;;;;;6128307;23;20022;-83
2022/05/10 02:28:45;;;;;;;6.88;5.80;;;8.30;99.90;;;;;;6151115;23;20025;-83
2022/05/10 02:31:26;;;;;;;6.90;5.40;;;8.10;99.90;;;;;;6126882;23;20025;-83
2022/05/10 02:33:55;;;;;;;8.23;7.22;;;8.00;99.90;;;;;;6126979;23;20037;-83
2022/05/10 02:36:26;;;;;;;8.70;7.03;;;7.90;99.90;;;;;;6159221;23;20034;-83
2022/05/10 02:38:54;;;;;;;6.78;6.18;;;7.90;99.90;;;;;;6178724;23;20021;-83
2022/05/10 02:41:22;;;;;;;7.22;6.13;;;7.90;99.90;;;;;;6185252;23;20032;-83
2022/05/10 02:43:58;;;;;;;15.60;9.63;;;7.90;99.90;;;;;;6106665;23;20044;-83
2022/05/10 02:46:28;;;;;;;9.65;6.03;;;8.00;99.90;;;;;;6132144;23;20333;-83
2022/05/10 02:48:56;;;;;;;8.73;7.90;;;7.90;99.90;;;;;;6131124;23;20029;-84
2022/05/10 02:51:24;;;;;;;5.85;5.28;;;8.00;99.90;;;;;;6131615;23;20437;-83
2022/05/10 02:53:52;;;;;;;7.38;6.72;;;8.00;99.90;;;;;;6131039;23;20036;-83
2022/05/10 02:56:24;;;;;;;7.30;5.47;;;7.90;99.90;;;;;;6163433;23;20025;-84
2022/05/10 02:59:22;;;;;;;8.23;6.45;;;7.90;99.90;;;;;;6131403;23;20028;-83
2022/05/10 03:02:10;;;;;;;6.57;5.60;;;7.80;99.90;;;;;;6156663;23;20025;-83
2022/05/10 03:04:43;;;;;;;7.28;5.80;;;7.80;99.90;;;;;;6130830;23;20021;-83
2022/05/10 03:07:12;;;;;;;9.43;6.00;;;7.80;99.90;;;;;;6131654;23;20017;-84
2022/05/10 03:09:40;;;;;;;7.40;6.53;;;7.90;99.90;;;;;;6183925;23;20025;-84
2022/05/10 03:12:10;;;;;;;10.82;6.38;;;8.10;99.90;;;;;;6164349;23;20479;-83
2022/05/10 03:14:37;;;;;;;5.60;5.10;;;8.00;99.90;;;;;;6142439;23;20017;-84
2022/05/10 03:17:05;;;;;;;9.23;6.75;;;8.00;99.90;;;;;;6159345;23;20028;-84
2022/05/10 03:19:33;;;;;;;10.05;5.55;;;8.00;99.90;;;;;;6131540;23;20013;-84
2022/05/10 03:22:01;;;;;;;7.50;6.78;;;8.10;99.90;;;;;;6129974;23;20475;-84
2022/05/10 03:24:29;;;;;;;7.90;6.85;;;8.20;99.90;;;;;;6188864;23;20364;-84
2022/05/10 03:26:59;;;;;;;9.85;7.20;;;8.30;99.90;;;;;;6107415;23;20013;-84
2022/05/10 03:29:27;;;;;;;8.55;7.68;;;8.20;99.90;;;;;;6157740;23;20021;-84
2022/05/10 03:31:56;;;;;;;8.05;6.18;;;8.20;99.90;;;;;;6130275;23;20028;-84
2022/05/10 03:37:11;;;;;;;7.40;6.57;;;8.20;99.90;;;;;;6129811;23;20029;-83
2022/05/10 03:39:38;;;;;;;7.10;5.60;;;8.30;99.90;;;;;;6131082;23;20028;-84
2022/05/10 03:42:10;;;;;;;6.72;5.65;;;8.30;99.90;;;;;;6129679;23;20029;-84
2022/05/10 03:44:37;;;;;;;7.50;5.93;;;8.30;99.90;;;;;;6131244;23;20541;-84
2022/05/10 03:47:08;;;;;;;12.98;7.20;;;8.20;99.90;;;;;;6165563;23;20016;-84
2022/05/10 03:49:36;;;;;;;13.70;7.88;;;8.20;99.90;;;;;;6130183;23;20025;-84
2022/05/10 03:52:06;;;;;;;9.35;6.80;;;8.30;99.90;;;;;;6154062;23;20036;-85
2022/05/10 03:54:44;;;;;;;6.13;5.60;;;8.30;99.90;;;;;;6155456;23;20017;-85
2022/05/10 03:57:36;;;;;;;7.28;6.63;;;8.30;99.90;;;;;;6106177;23;20020;-84
2022/05/10 04:00:08;;;;;;;8.13;5.88;;;8.30;99.90;;;;;;6130841;23;20017;-85
2022/05/10 04:02:40;;;;;;;10.00;5.85;;;8.20;99.90;;;;;;6191750;23;20429;-84
2022/05/10 04:05:08;;;;;;;7.05;6.13;;;8.20;99.90;;;;;;6186190;23;20612;-84
2022/05/10 04:07:36;;;;;;;11.73;7.47;;;8.20;99.90;;;;;;6191578;23;20013;-84
2022/05/10 04:10:06;;;;;;;8.13;6.70;;;8.10;99.90;;;;;;6155984;23;20021;-84
2022/05/10 04:12:37;;;;;;;9.30;5.22;;;7.80;99.90;;;;;;6162216;23;20475;-84
2022/05/10 04:15:07;;;;;;;8.52;6.10;;;7.70;99.90;;;;;;6131165;23;20024;-84
2022/05/10 04:17:35;;;;;;;9.52;6.45;;;7.80;99.90;;;;;;6156952;23;20025;-84
2022/05/10 04:20:06;;;;;;;7.47;6.68;;;7.90;99.90;;;;;;6189969;23;20021;-84
2022/05/10 04:22:34;;;;;;;8.18;7.38;;;7.90;99.90;;;;;;6130417;23;20025;-84
2022/05/10 04:25:16;;;;;;;6.50;5.95;;;7.80;99.90;;;;;;6155398;23;20032;-84
2022/05/10 04:27:44;;;;;;;10.57;7.35;;;7.70;99.90;;;;;;6190773;23;20021;-84
2022/05/10 04:30:13;;;;;;;5.80;5.22;;;7.50;99.90;;;;;;6165666;23;20009;-84
2022/05/10 04:32:41;;;;;;;7.55;6.85;;;7.50;99.90;;;;;;6160684;23;20024;-84
2022/05/10 04:35:10;;;;;;;9.52;8.57;;;7.50;99.90;;;;;;6192147;23;20046;-84
2022/05/10 04:37:39;;;;;;;9.38;7.93;;;7.80;99.90;;;;;;6154331;23;20017;-84
2022/05/10 04:42:55;;;;;;;6.93;5.90;;;8.30;99.90;;;;;;6165623;23;20452;-84
2022/05/10 04:45:22;;;;;;;7.43;6.75;;;8.30;99.90;;;;;;6130530;23;20032;-84
2022/05/10 04:47:50;;;;;;;14.55;8.43;;;8.40;99.90;;;;;;6154562;23;20017;-84
2022/05/10 04:50:18;;;;;;;7.80;5.38;;;8.50;99.90;;;;;;6131210;23;20024;-84
2022/05/10 04:52:46;;;;;;;6.20;5.20;;;8.50;99.90;;;;;;6185893;23;20029;-83
2022/05/10 04:55:13;;;;;;;7.05;5.63;;;8.70;99.90;;;;;;6191761;23;20012;-82
2022/05/10 04:57:41;;;;;;;10.07;7.72;;;9.00;99.90;;;;;;6154171;23;20029;-83
2022/05/10 05:00:13;;;;;;;11.25;7.18;;;9.50;99.90;;;;;;6155298;23;20036;-83
2022/05/10 05:02:42;;;;;;;9.95;6.95;;;10.00;99.90;;;;;;6165784;23;20020;-83
2022/05/10 05:05:12;;;;;;;7.47;5.70;;;10.40;99.90;;;;;;6158816;23;20415;-83
2022/05/10 05:07:40;;;;;;;9.02;6.68;;;10.70;99.90;;;;;;6191014;23;20016;-83
2022/05/10 05:10:09;;;;;;;7.80;6.95;;;10.90;99.90;;;;;;6154596;23;20483;-84
2022/05/10 05:12:37;;;;;;;10.30;8.15;;;11.20;99.90;;;;;;6187565;23;20599;-84
2022/05/10 05:15:08;;;;;;;7.82;6.82;;;11.40;99.90;;;;;;6191616;23;20024;-84
2022/05/10 05:17:38;;;;;;;8.43;7.57;;;11.70;99.90;;;;;;6182980;23;20025;-84
2022/05/10 05:20:06;;;;;;;8.88;7.75;;;12.10;99.90;;;;;;6189496;23;20032;-81
2022/05/10 05:22:34;;;;;;;9.35;6.97;;;12.50;99.90;;;;;;6191678;23;20448;-81
2022/05/10 05:25:02;;;;;;;11.05;7.72;;;12.70;99.90;;;;;;6185854;23;20025;-82
2022/05/10 05:27:30;;;;;;;9.57;7.18;;;12.90;99.90;;;;;;6193283;23;20032;-83
2022/05/10 05:29:58;;;;;;;8.02;6.93;;;13.10;99.90;;;;;;6183302;23;20352;-83
2022/05/10 05:32:33;;;;;;;6.95;5.72;;;13.30;99.90;;;;;;6188876;23;20032;-82
2022/05/10 05:35:01;;;;;;;9.30;8.38;;;13.50;99.90;;;;;;6193113;23;20012;-82
2022/05/10 05:37:35;;;;;;;13.55;7.22;;;13.70;99.90;;;;;;6184358;23;20344;-83
2022/05/10 05:40:14;;;;;;;9.63;6.43;;;13.90;99.90;;;;;;6108067;23;20021;-83
2022/05/10 05:42:47;;;;;;;7.95;7.20;;;14.30;99.90;;;;;;6132007;23;20024;-83
2022/05/10 05:45:18;;;;;;;6.65;6.05;;;14.50;99.90;;;;;;6186572;23;20025;-83
2022/05/10 05:47:46;;;;;;;9.57;8.52;;;14.70;99.90;;;;;;6192388;23;20031;-83
2022/05/10 05:50:16;;;;;;;5.97;5.43;;;14.80;99.90;;;;;;6193470;23;20024;-83
2022/05/10 05:52:45;;;;;;;5.85;5.13;;;14.90;99.90;;;;;;6156267;23;20357;-83
2022/05/10 05:55:13;;;;;;;6.07;4.30;;;15.10;99.90;;;;;;6193438;23;20013;-83
2022/05/10 05:57:41;;;;;;;5.05;4.55;;;15.40;99.90;;;;;;6184135;23;20036;-83
2022/05/10 06:00:16;;;;;;;6.05;5.47;;;15.80;99.90;;;;;;6164880;23;20479;-84
2022/05/10 06:02:44;;;;;;;4.97;4.47;;;15.80;99.90;;;;;;6193452;23;20310;-84
2022/05/10 06:05:12;;;;;;;4.45;4.05;;;15.70;99.90;;;;;;6160476;23;20452;-84
2022/05/10 06:07:41;;;;;;;6.43;5.30;;;15.70;99.90;;;;;;6191959;23;20444;-84
2022/05/10 06:10:10;;;;;;;4.90;4.40;;;15.80;99.90;;;;;;6152654;23;20028;-88
2022/05/10 06:12:39;;;;;;;6.25;4.68;;;16.20;99.90;;;;;;6132793;23;20021;-87
2022/05/10 06:16:29;;;;;;;4.57;4.18;;;16.60;99.90;;;;;;6156737;23;20709;-86
2022/05/10 06:27:20;;;;;;;;;;;17.70;99.90;;;;;;6168700;23;20033;-85
2022/05/10 06:31:18;;;;;;;7.00;4.07;;;17.40;99.90;;;;;;6011570;23;19928;-84
2022/05/10 06:40:27;;;;;;;4.85;4.32;;;18.10;99.90;;;;;;6162393;23;20028;-85
2022/05/10 06:43:14;;;;;;;5.07;4.55;;;18.40;99.90;;;;;;6131741;23;20025;-86
2022/05/10 06:45:44;;;;;;;8.88;6.07;;;18.50;99.90;;;;;;6131125;23;20036;-85
2022/05/10 06:48:20;;;;;;;6.72;5.82;;;18.50;99.90;;;;;;6155304;23;20029;-86
2022/05/10 06:50:49;;;;;;;6.18;5.65;;;18.50;99.90;;;;;;6166220;23;20016;-86
2022/05/10 06:53:18;;;;;;;6.55;4.90;;;18.90;99.90;;;;;;6158048;23;20409;-85
2022/05/10 06:55:49;;;;;;;6.30;5.60;;;19.10;99.90;;;;;;6106758;23;20499;-85
2022/05/10 06:58:17;;;;;;;11.32;5.60;;;18.60;99.90;;;;;;6131404;23;20013;-84
2022/05/10 07:00:45;;;;;;;4.82;4.43;;;19.10;99.90;;;;;;6161303;23;20028;-85
2022/05/10 07:03:16;;;;;;;7.28;5.80;;;19.90;99.90;;;;;;6131207;23;20021;-85
2022/05/10 07:05:45;;;;;;;8.18;7.38;;;20.10;99.90;;;;;;6157398;23;20032;-85
2022/05/10 07:08:57;;;;;;;5.90;5.38;;;20.40;99.90;;;;;;6191868;23;20028;-84
2022/05/10 07:12:58;;;;;;;5.45;4.95;;;20.10;99.90;;;;;;6012730;23;20086;-84
2022/05/10 07:16:06;;;;;;;6.50;5.90;;;20.20;99.90;;;;;;5985046;23;20376;-83
2022/05/10 07:19:33;;;;;;;10.27;7.30;;;19.50;99.90;;;;;;6017231;23;20566;-84
2022/05/10 07:23:07;;;;;;;5.50;4.97;;;19.20;99.90;;;;;;6008434;23;20042;-84
2022/05/10 07:26:06;;;;;;;;;;;;;;;;;;;;;
2022/05/10 07:29:23;;;;;;;5.88;5.35;;;19.60;99.90;;;;;;6043981;23;20038;-84
2022/05/10 07:32:14;;;;;;;5.82;4.22;;;19.30;99.90;;;;;;5986944;23;20594;-83
2022/05/10 07:34:43;;;;;;;10.02;5.18;;;19.30;99.90;;;;;;6042497;23;20023;-83
2022/05/10 07:37:10;;;;;;;4.85;4.28;;;19.40;99.90;;;;;;6036779;23;20458;-83
2022/05/10 07:39:38;;;;;;;5.18;4.70;;;19.40;99.90;;;;;;6043157;23;20019;-83
2022/05/10 07:42:07;;;;;;;9.27;4.95;;;19.50;99.90;;;;;;6013437;23;20029;-83
2022/05/10 07:44:40;;;;;;;5.97;5.40;;;19.40;99.90;;;;;;6067112;23;20459;-82
2022/05/10 07:47:09;;;;;;;6.22;5.70;;;19.20;99.90;;;;;;6037780;23;20501;-82
2022/05/10 07:49:37;;;;;;;4.70;4.30;;;19.30;99.90;;;;;;6039321;23;20026;-83
2022/05/10 07:52:13;;;;;;;4.50;4.13;;;19.30;99.90;;;;;;6044636;23;20029;-83
2022/05/10 07:54:41;;;;;;;5.35;4.93;;;19.50;99.90;;;;;;6067096;23;20023;-82
2022/05/10 07:57:09;;;;;;;6.53;5.50;;;19.20;99.90;;;;;;6065443;23;20030;-82
2022/05/10 07:59:37;;;;;;;4.93;4.53;;;19.10;99.90;;;;;;6071735;23;20019;-83
2022/05/10 08:02:06;;;;;;;5.18;4.60;;;19.10;99.90;;;;;;6061198;23;20491;-82
2022/05/10 08:04:34;;;;;;;4.97;3.65;;;19.20;99.90;;;;;;6013605;23;20027;-83
2022/05/10 08:07:03;;;;;;;6.63;4.72;;;19.30;99.90;;;;;;6047082;23;20463;-84
2022/05/10 08:09:33;;;;;;;;;;;19.00;99.90;;;;;;6038062;23;20027;-84
2022/05/10 08:12:02;;;;;;;4.85;4.00;;;19.00;99.90;;;;;;6037525;23;19925;-83
2022/05/10 08:14:38;;;;;;;4.75;4.30;;;19.10;99.90;;;;;;6014891;23;20030;-83
2022/05/10 08:17:22;;;;;;;3.83;3.53;;;19.00;99.90;;;;;;6021685;23;20033;-84
2022/05/10 08:19:55;;;;;;;6.13;3.60;;;18.90;99.90;;;;;;6025316;23;20320;-83
2022/05/10 08:22:23;;;;;;;4.00;3.60;;;18.90;99.90;;;;;;6101206;23;20020;-83
2022/05/10 08:24:55;;;;;;;4.53;3.92;;;19.20;99.90;;;;;;6131679;23;20028;-83
2022/05/10 08:27:24;;;;;;;3.78;3.47;;;19.40;99.90;;;;;;6125644;23;20036;-83
2022/05/10 08:29:52;;;;;;;4.03;3.60;;;19.50;99.90;;;;;;6076556;23;20463;-82
2022/05/10 08:32:20;;;;;;;4.20;3.90;;;19.30;99.90;;;;;;6077020;23;20025;-83
2022/05/10 08:34:48;;;;;;;11.80;4.18;;;19.50;99.90;;;;;;6162640;23;20473;-84
2022/05/10 08:37:16;;;;;;;5.10;4.38;;;20.00;99.90;;;;;;6100009;23;20036;-83
2022/05/10 08:39:45;;;;;;;5.70;4.82;;;19.70;99.90;;;;;;6134712;23;20021;-83
2022/05/10 08:42:28;;;;;;;3.67;3.35;;;19.30;99.90;;;;;;6162109;23;20013;-87
2022/05/10 08:45:05;;;;;;;3.72;3.42;;;18.90;99.90;;;;;;6076763;23;20382;-82
2022/05/10 08:47:37;;;;;;;8.80;3.47;;;19.00;99.90;;;;;;6101709;23;20021;-82
2022/05/10 08:50:09;;;;;;;4.82;4.38;;;18.80;99.90;;;;;;6101722;23;20025;-82
2022/05/10 08:52:57;;;;;;;4.85;4.47;;;18.90;99.90;;;;;;6155671;23;20025;-82
2022/05/10 08:55:28;;;;;;;10.95;4.15;;;18.80;99.90;;;;;;6162239;23;20318;-83
2022/05/10 08:58:07;;;;;;;4.72;4.35;;;19.00;99.90;;;;;;6151689;23;20029;-83
2022/05/10 09:00:40;;;;;;;6.28;5.70;;;19.10;99.90;;;;;;6131217;23;20018;-83
2022/05/10 09:03:20;;;;;;;6.35;5.75;;;19.10;99.90;;;;;;6161919;23;20020;-83
2022/05/10 09:05:49;;;;;;;6.50;5.97;;;19.20;99.90;;;;;;6127007;23;20033;-83
2022/05/10 09:08:37;;;;;;;5.20;4.70;;;19.30;99.90;;;;;;6158270;23;20028;-84
2022/05/10 09:11:10;;;;;;;7.07;4.30;;;19.40;99.90;;;;;;6161556;23;20009;-83
2022/05/10 09:13:39;;;;;;;6.72;4.10;;;19.50;99.90;;;;;;6077573;23;20021;-83
2022/05/10 09:16:25;;;;;;;5.35;4.85;;;19.60;99.90;;;;;;6125399;23;20346;-84
2022/05/10 09:18:54;;;;;;;4.60;4.20;;;19.50;99.90;;;;;;6126058;23;20017;-84
2022/05/10 09:21:27;;;;;;;5.53;4.65;;;19.40;99.90;;;;;;6076999;23;20365;-83
2022/05/10 09:24:33;;;;;;;5.47;4.97;;;19.20;99.90;;;;;;6088165;23;20018;-85
2022/05/10 09:27:10;;;;;;;6.00;4.32;;;19.30;99.90;;;;;;6135110;23;20014;-83
2022/05/10 09:29:49;;;;;;;10.18;5.45;;;19.40;99.90;;;;;;6152880;23;20032;-83
2022/05/10 09:35:24;;;;;;;4.57;3.83;;;19.60;99.90;;;;;;6161575;23;20441;-84
2022/05/10 09:37:55;;;;;;;7.25;3.92;;;19.70;99.90;;;;;;6151615;23;20045;-86
2022/05/10 09:40:42;;;;;;;4.90;4.50;;;19.80;99.90;;;;;;6158136;23;20022;-83
2022/05/10 09:43:33;;;;;;;6.68;5.45;;;19.80;99.90;;;;;;6161901;23;20013;-77
2022/05/10 09:46:11;;;;;;;4.93;4.40;;;20.00;99.90;;;;;;6151475;23;20468;-83
2022/05/10 09:48:58;;;;;;;5.15;4.68;;;20.00;99.90;;;;;;6124834;23;20029;-87
2022/05/10 09:51:39;;;;;;;5.47;4.65;;;20.10;99.90;;;;;;6135227;23;20474;-83
2022/05/10 09:54:19;;;;;;;4.97;4.47;;;20.10;99.90;;;;;;6100931;23;20033;-84
2022/05/10 09:56:51;;;;;;;6.40;4.45;;;20.20;99.90;;;;;;6130929;23;20021;-83
2022/05/10 09:59:18;;;;;;;4.60;4.20;;;20.10;99.90;;;;;;6125583;23;20018;-84
2022/05/10 10:01:49;;;;;;;4.82;4.40;;;20.00;99.90;;;;;;6152832;23;20025;-83
2022/05/10 10:04:40;;;;;;;4.18;3.85;;;20.00;99.90;;;;;;6159273;23;20465;-82
2022/05/10 10:07:17;;;;;;;3.38;3.17;;;20.10;99.90;;;;;;6134471;23;20014;-83
2022/05/10 10:09:51;;;;;;;5.22;4.72;;;20.10;99.90;;;;;;6124934;23;20022;-82
2022/05/10 10:12:45;;;;;;;4.55;4.10;;;20.20;99.90;;;;;;6109897;23;20045;-86
2022/05/10 10:15:36;;;;;;;4.15;3.75;;;20.40;99.90;;;;;;6104044;23;20311;-82
2022/05/10 10:22:11;;;;;;;4.05;3.65;;;20.20;99.90;;;;;;6152146;23;20021;-84
2022/05/10 10:24:50;;;;;;;7.35;4.47;;;20.10;99.90;;;;;;6159204;23;20032;-86
2022/05/10 10:27:38;;;;;;;4.70;4.30;;;20.10;99.90;;;;;;6130573;23;20311;-84
2022/05/10 10:30:23;;;;;;;21.13;3.80;;;20.10;99.90;;;;;;6122511;23;20029;-83
2022/05/10 10:33:34;;;;;;;4.72;3.53;;;20.40;99.90;;;;;;6098153;23;20026;-84
2022/05/10 10:36:12;;;;;;;3.10;2.90;;;20.30;99.90;;;;;;6103225;23;20453;-84
2022/05/10 10:38:58;;;;;;;7.53;3.17;;;20.40;99.90;;;;;;6132574;23;20319;-84
2022/05/10 10:41:48;;;;;;;4.72;4.20;;;20.60;99.90;;;;;;6123471;23;20026;-83
2022/05/10 10:44:34;;;;;;;4.00;3.65;;;20.80;99.90;;;;;;6097490;23;20029;-81
2022/05/10 10:47:08;;;;;;;3.83;3.58;;;20.90;99.90;;;;;;6134245;23;20338;-81
2022/05/10 10:49:52;;;;;;;3.72;3.40;;;20.90;99.90;;;;;;6097815;23;20559;-80
2022/05/10 10:52:21;;;;;;;3.65;3.28;;;20.70;99.90;;;;;;6126209;23;20029;-80
2022/05/10 10:54:50;;;;;;;4.55;4.15;;;20.70;99.90;;;;;;6132516;23;20010;-79
2022/05/10 10:57:27;;;;;;;4.28;3.97;;;20.80;99.90;;;;;;6125251;23;20022;-80
2022/05/10 11:00:11;;;;;;;4.40;4.10;;;20.80;99.90;;;;;;6120410;23;20462;-81
2022/05/10 11:02:54;;;;;;;4.80;4.32;;;20.90;99.90;;;;;;6134977;23;20013;-81
2022/05/10 11:06:00;;;;;;;5.00;4.43;;;20.90;99.90;;;;;;6128197;23;20033;-84
2022/05/10 11:08:42;;;;;;;3.33;3.10;;;21.00;99.90;;;;;;6075259;23;20033;-82
2022/05/10 11:11:43;;;;;;;5.28;4.78;;;21.30;99.90;;;;;;6134305;23;20338;-82
2022/05/10 11:14:46;;;;;;;3.78;3.47;;;21.60;99.90;;;;;;6122921;23;20022;-86
2022/05/10 11:17:32;;;;;;;3.35;3.05;;;21.80;99.90;;;;;;6065575;23;20022;-83
2022/05/10 11:23:06;;;;;;;2.78;2.58;;;21.70;99.90;;;;;;6131364;23;19921;-87
2022/05/10 11:26:05;;;;;;;;;;;21.60;99.90;;;;;;6097552;23;20358;-82
2022/05/10 11:29:02;;;;;;;5.15;4.60;;;21.20;99.90;;;;;;6122637;23;20229;-84
2022/05/10 11:31:39;;;;;;;4.47;4.13;;;20.80;99.90;;;;;;6126678;23;20017;-86
2022/05/10 11:34:53;;;;;;;4.68;3.72;;;20.60;99.90;;;;;;6126345;23;20021;-86
2022/05/10 11:37:47;;;;;;;8.95;3.97;;;20.60;99.90;;;;;;6074898;23;20037;-85
2022/05/10 11:40:28;;;;;;;5.15;4.75;;;20.20;99.90;;;;;;6127594;23;20345;-82
2022/05/10 11:43:08;;;;;;;4.38;3.97;;;19.90;99.90;;;;;;6104892;23;20017;-84
2022/05/10 11:46:01;;;;;;;5.25;4.78;;;19.80;99.90;;;;;;6113107;23;20030;-85
2022/05/10 11:48:59;;;;;;;4.20;3.38;;;20.40;99.90;;;;;;6102227;23;20021;-83
2022/05/10 11:52:16;;;;;;;4.57;3.67;;;20.80;99.90;;;;;;6161791;23;20013;-86
2022/05/10 11:54:54;;;;;;;5.13;3.22;;;20.90;99.90;;;;;;6104912;23;20045;-84
2022/05/10 11:57:26;;;;;;;5.25;4.13;;;21.00;99.90;;;;;;6130341;23;20033;-83
2022/05/10 12:00:40;;;;;;;4.35;4.05;;;21.00;99.90;;;;;;6163183;23;20020;-86
2022/05/10 12:03:43;;;;;;;3.45;3.25;;;21.00;99.90;;;;;;6078226;23;20014;-84
2022/05/10 12:06:24;;;;;;;7.45;3.50;;;21.20;99.90;;;;;;6072948;23;20032;-83
2022/05/10 12:09:00;;;;;;;5.10;4.38;;;21.40;99.90;;;;;;6131412;23;20026;-84
2022/05/10 12:11:34;;;;;;;4.07;3.78;;;21.70;99.90;;;;;;6136758;23;20021;-85
2022/05/10 12:23:00;;;;;;;5.07;3.63;;;21.40;99.90;;;;;;6161843;23;20044;-82
2022/05/10 12:25:52;;;;;;;6.72;5.22;;;21.30;99.90;;;;;;6154380;23;20017;-82
2022/05/10 12:28:39;;;;;;;5.93;4.32;;;21.50;99.90;;;;;;6154687;23;20047;-84
2022/05/10 12:31:32;;;;;;;13.38;4.20;;;21.50;99.90;;;;;;6161946;23;20014;-83
2022/05/10 12:34:22;;;;;;;4.35;3.95;;;21.60;99.90;;;;;;6152423;23;20037;-82
2022/05/10 12:36:50;;;;;;;7.07;3.83;;;21.90;99.90;;;;;;6124891;23;20025;-82
2022/05/10 12:39:21;;;;;;;5.40;3.65;;;21.90;99.90;;;;;;6159365;23;20018;-82
2022/05/10 12:42:16;;;;;;;4.13;3.78;;;21.90;99.90;;;;;;6152109;23;20040;-84
2022/05/10 12:45:17;;;;;;;5.07;3.58;;;21.90;99.90;;;;;;6099691;23;20034;-86
2022/05/10 12:48:15;;;;;;;4.20;3.90;;;22.10;99.90;;;;;;6160345;23;20021;-88
2022/05/10 12:50:49;;;;;;;6.22;3.40;;;22.30;99.90;;;;;;6161875;23;20017;-85
2022/05/10 12:53:31;;;;;;;5.35;4.38;;;22.40;99.90;;;;;;6154095;23;20485;-85
2022/05/10 12:56:17;;;;;;;3.78;3.38;;;22.30;99.90;;;;;;6150730;23;20028;-84
2022/05/10 12:58:50;;;;;;;5.00;4.60;;;22.20;99.90;;;;;;6161816;23;20460;-86
2022/05/10 13:01:25;;;;;;;4.40;3.97;;;22.00;99.90;;;;;;6128679;23;20026;-88
2022/05/10 13:04:02;;;;;;;4.13;3.83;;;21.70;99.90;;;;;;6160493;23;20021;-84
2022/05/10 13:06:48;;;;;;;4.20;3.13;;;21.50;99.90;;;;;;6160778;23;20413;-83
2022/05/10 13:09:24;;;;;;;6.10;4.05;;;21.30;99.90;;;;;;6154569;23;20033;-85
2022/05/10 13:11:57;;;;;;;4.63;4.30;;;21.20;99.90;;;;;;6151103;23;20009;-82
2022/05/10 13:14:30;;;;;;;5.30;3.78;;;21.00;99.90;;;;;;6161968;23;20021;-84
2022/05/10 13:17:00;;;;;;;3.25;3.00;;;20.80;99.90;;;;;;6155824;23;20037;-84
2022/05/10 13:19:29;;;;;;;5.32;4.40;;;20.90;99.90;;;;;;6162018;23;20013;-85
2022/05/10 13:22:08;;;;;;;4.30;3.72;;;21.30;99.90;;;;;;6151154;23;20353;-84
2022/05/10 13:24:42;;;;;;;5.95;3.60;;;21.80;99.90;;;;;;6157871;23;20461;-84
2022/05/10 13:27:29;;;;;;;4.55;4.15;;;22.00;99.90;;;;;;6159632;23;20018;-84
2022/05/10 13:30:07;;;;;;;4.38;3.08;;;22.20;99.90;;;;;;6125736;23;20026;-82
2022/05/10 13:32:42;;;;;;;4.93;4.28;;;22.20;99.90;;;;;;6100848;23;20381;-83
2022/05/10 13:35:18;;;;;;;5.80;3.47;;;22.20;99.90;;;;;;6101404;23;20018;-85
2022/05/10 13:38:00;;;;;;;4.13;3.75;;;21.90;99.90;;;;;;6099690;23;20350;-84
2022/05/10 13:40:39;;;;;;;3.92;3.58;;;21.40;99.90;;;;;;6132399;23;20021;-85
2022/05/10 13:43:09;;;;;;;11.40;3.75;;;21.20;99.90;;;;;;6159227;23;20024;-83
2022/05/10 13:45:38;;;;;;;5.35;3.95;;;21.20;99.90;;;;;;6127606;23;20026;-83
2022/05/10 13:48:12;;;;;;;6.90;3.70;;;21.20;99.90;;;;;;6159621;23;20025;-82
2022/05/10 13:50:41;;;;;;;5.22;3.67;;;21.30;99.90;;;;;;6164076;23;20017;-83
2022/05/10 13:53:18;;;;;;;4.20;3.75;;;21.30;99.90;;;;;;6130855;23;20026;-84
2022/05/10 13:55:55;;;;;;;3.88;3.58;;;21.20;99.90;;;;;;6163492;23;20013;-81
2022/05/10 13:58:31;;;;;;;4.75;3.38;;;20.90;99.90;;;;;;6113739;23;20552;-84
2022/05/10 14:00:59;;;;;;;4.38;4.00;;;20.80;99.90;;;;;;6157743;23;20021;-83
2022/05/10 14:03:27;;;;;;;4.15;3.70;;;20.80;99.90;;;;;;6164256;23;20010;-85
2022/05/10 14:06:10;;;;;;;3.88;3.50;;;21.00;99.90;;;;;;6153912;23;20025;-86
2022/05/10 14:08:45;;;;;;;3.20;2.90;;;21.40;99.90;;;;;;6126317;23;20033;-83
2022/05/10 14:11:24;;;;;;;3.53;3.17;;;21.70;99.90;;;;;;6127872;23;20021;-89
2022/05/10 14:14:00;;;;;;;6.35;3.28;;;21.80;99.90;;;;;;6129397;23;20026;-87
2022/05/10 14:16:34;;;;;;;3.97;3.67;;;21.90;99.90;;;;;;6159507;23;20025;-86
2022/05/10 14:19:45;;;;;;;4.32;3.30;;;22.10;99.90;;;;;;6163495;23;20472;-89
2022/05/10 14:22:27;;;;;;;5.50;3.67;;;22.10;97.50;;;;;;6147332;23;20030;-85
2022/05/10 14:24:55;;;;;;;3.58;3.38;;;21.70;99.40;;;;;;6158007;23;20026;-84
2022/05/10 14:27:25;;;;;;;7.80;2.85;;;21.40;99.90;;;;;;6130053;23;20026;-84
2022/05/10 14:29:56;;;;;;;3.30;2.90;;;21.20;99.90;;;;;;6122449;23;20033;-84
2022/05/10 14:32:27;;;;;;;11.40;4.05;;;21.10;99.90;;;;;;6130201;23;20331;-85
2022/05/10 14:34:58;;;;;;;4.03;3.75;;;21.00;99.90;;;;;;6098416;23;20017;-84
2022/05/10 14:37:36;;;;;;;4.25;3.95;;;20.90;99.90;;;;;;6124514;23;20041;-84
2022/05/10 14:40:26;;;;;;;4.45;4.03;;;20.80;99.90;;;;;;6121893;23;20029;-84